SV1AAW Kopaida GR current weather conditions

sailwx.info

Wind from 294 at 6 knots gusting 7

Air temperature 8.9° C
Dewpoint 7.2° C

Last reported at 2019-Dec-05 21:59 UTC.
Time now 2019-Dec-05 22:29 UTC

Location: N 38°28' E 023°08'.
View on Google Maps.

See reports from other nearby stations

  
Tides and Currents Weather Stations Pressure Air Temp Water Temp Dewpoint Dewpoint Depression Visibility Wind Speed Wind Dir Waves Ship Positions
date/time (UTC)wind fromknots sea level pressurealtimeterstation pressurevisibilityair tempwater tempwave heightnotes
2019-Dec-05 21:59 294 6 gusting 7 8.9
2019-Dec-05 21:54 296 6 gusting 8 8.9
2019-Dec-05 21:49 295 6 gusting 8 8.9
2019-Dec-05 21:44 292 6 gusting 8 8.9
2019-Dec-05 21:39 292 6 gusting 8 8.9
2019-Dec-05 21:34 290 6 gusting 10 8.9
2019-Dec-05 21:29 288 6 gusting 10 8.9
2019-Dec-05 21:24 288 6 gusting 8 8.9
2019-Dec-05 21:19 292 6 gusting 7 8.9
2019-Dec-05 21:14 289 6 gusting 7 8.9
2019-Dec-05 21:09 292 6 gusting 7 8.9
2019-Dec-05 20:59 288 6 gusting 8 8.9
2019-Dec-05 20:54 288 6 gusting 6 8.9
2019-Dec-05 20:49 285 6 gusting 6 8.9
2019-Dec-05 20:44 287 6 gusting 7 8.9
2019-Dec-05 20:39 288 6 gusting 7 8.9
2019-Dec-05 20:34 291 6 gusting 7 8.9
2019-Dec-05 20:29 294 6 gusting 7 8.9
2019-Dec-05 20:24 288 6 gusting 8 8.9
2019-Dec-05 20:19 296 6 gusting 7 8.9
2019-Dec-05 20:14 290 6 gusting 7 8.9
2019-Dec-05 20:09 291 6 gusting 8 8.9
2019-Dec-05 19:59 291 6 gusting 10 8.9
2019-Dec-05 19:54 289 7 gusting 10 8.9
2019-Dec-05 19:49 290 6 gusting 8 8.9
2019-Dec-05 19:44 290 6 gusting 8 8.9
2019-Dec-05 19:39 289 7 gusting 10 8.9
2019-Dec-05 19:34 289 7 gusting 8 8.9
2019-Dec-05 19:29 285 6 gusting 7 8.9
2019-Dec-05 19:24 285 6 gusting 8 8.9
2019-Dec-05 19:19 286 6 gusting 8 8.9
2019-Dec-05 19:14 288 6 gusting 8 8.9
2019-Dec-05 19:09 289 6 gusting 8 8.9
2019-Dec-05 18:59 289 6 gusting 7 8.9
2019-Dec-05 18:54 292 6 gusting 10 8.9
2019-Dec-05 18:49 288 6 gusting 8 8.9
2019-Dec-05 18:44 291 6 gusting 8 8.9
2019-Dec-05 18:39 290 6 gusting 10 8.9
2019-Dec-05 18:34 292 7 gusting 10 8.9
2019-Dec-05 18:29 291 7 gusting 10 8.9
2019-Dec-05 18:24 288 5 gusting 6 8.9
2019-Dec-05 18:19 288 7 gusting 8 8.9
2019-Dec-05 18:14 290 6 gusting 10 8.9
2019-Dec-05 18:09 291 9 gusting 11 8.9
2019-Dec-05 17:59 292 7 gusting 10 9.4
2019-Dec-05 17:54 299 10 gusting 12 8.9
2019-Dec-05 17:49 297 8 gusting 11 8.9
2019-Dec-05 17:44 299 8 gusting 11 8.9
2019-Dec-05 17:39 306 10 gusting 13 8.9
2019-Dec-05 17:34 295 8 gusting 11 8.9
2019-Dec-05 17:29 302 10 gusting 12 8.9
2019-Dec-05 17:24 292 10 gusting 13 8.9
2019-Dec-05 17:19 292 9 gusting 11 8.9
2019-Dec-05 17:14 298 9 gusting 11 8.9
2019-Dec-05 17:09 296 8 gusting 12 8.9
2019-Dec-05 16:59 296 8 gusting 11 8.9
2019-Dec-05 16:54 299 9 gusting 11 8.9
2019-Dec-05 16:49 294 6 gusting 7 9.4
2019-Dec-05 16:44 296 6 gusting 6 9.4
2019-Dec-05 16:39 291 5 gusting 6 10.0
2019-Dec-05 16:34 304 5 gusting 6 10.0
2019-Dec-05 16:29 317 3 gusting 6 10.0
2019-Dec-05 16:24 326 4 gusting 5 10.0
2019-Dec-05 16:19 350 3 gusting 5 10.0
2019-Dec-05 16:14 342 3 gusting 4 9.4
2019-Dec-05 16:09 326 3 gusting 5 9.4
2019-Dec-05 15:59 318 4 gusting 6 9.4
2019-Dec-05 15:54 324 3 gusting 6 9.4
2019-Dec-05 15:49 340 2 gusting 4 9.4
2019-Dec-05 15:44 350 2 gusting 5 9.4
2019-Dec-05 15:39 342 5 gusting 6 9.4
2019-Dec-05 15:34 335 5 gusting 7 9.4
2019-Dec-05 15:29 339 6 gusting 7 9.4
2019-Dec-05 15:24 331 5 gusting 6 9.4
2019-Dec-05 15:19 339 6 gusting 8 9.4
2019-Dec-05 15:14 331 6 gusting 10 9.4
2019-Dec-05 15:09 323 6 gusting 8 9.4
2019-Dec-05 14:59 327 4 gusting 6 9.4
2019-Dec-05 14:54 271 3 gusting 8 9.4
2019-Dec-05 14:49 257 2 gusting 4 9.4
2019-Dec-05 14:44 269 1 gusting 2 9.4
2019-Dec-05 14:39 284 2 gusting 2 9.4
2019-Dec-05 14:34 290 1 gusting 2 9.4
2019-Dec-05 14:29 315 4 gusting 5 9.4
2019-Dec-05 14:24 299 4 gusting 5 9.4
2019-Dec-05 14:19 308 4 gusting 5 9.4
2019-Dec-05 14:14 325 4 gusting 5 9.4
2019-Dec-05 14:09 326 4 gusting 10 9.4
2019-Dec-05 13:59 306 6 gusting 10 9.4
2019-Dec-05 13:54 315 6 gusting 8 9.4
2019-Dec-05 13:49 325 5 gusting 7 9.4
2019-Dec-05 13:44 337 6 gusting 8 9.4
2019-Dec-05 13:39 350 6 gusting 10 10.0
2019-Dec-05 13:34 356 9 gusting 14 10.0
2019-Dec-05 13:29 004 9 gusting 14 10.0
2019-Dec-05 13:24 011 10 gusting 13 10.6
2019-Dec-05 13:19 351 5 gusting 10 10.6
2019-Dec-05 13:14 357 5 gusting 10 10.6
2019-Dec-05 13:09 005 7 gusting 10 10.6
2019-Dec-05 12:59 346 8 gusting 12 10.6
2019-Dec-05 12:54 344 6 gusting 10 10.6
2019-Dec-05 12:49 348 6 gusting 10 10.6
2019-Dec-05 12:44 002 7 gusting 10 10.6
2019-Dec-05 12:39 351 9 gusting 13 10.6
2019-Dec-05 12:34 358 8 gusting 13 10.6
2019-Dec-05 12:29 026 9 gusting 12 10.6
2019-Dec-05 12:24 002 6 gusting 10 10.6
2019-Dec-05 12:19 357 8 gusting 12 10.6
2019-Dec-05 12:14 357 5 gusting 8 10.6
2019-Dec-05 12:09 347 7 gusting 10 10.6
2019-Dec-05 11:59 340 6 gusting 10 10.6
2019-Dec-05 11:54 342 6 gusting 10 10.6
2019-Dec-05 11:49 358 6 gusting 7 10.0
2019-Dec-05 11:44 339 4 gusting 7 10.6
2019-Dec-05 11:39 356 6 gusting 8 10.6
2019-Dec-05 11:34 349 7 gusting 12 10.6
2019-Dec-05 11:29 001 10 gusting 13 10.6
2019-Dec-05 11:24 006 7 gusting 11 10.6
2019-Dec-05 11:19 029 8 gusting 14 10.6
2019-Dec-05 11:14 024 7 gusting 13 10.6
2019-Dec-05 11:09 024 10 gusting 17 10.6
2019-Dec-05 10:59 001 11 gusting 14 10.6
2019-Dec-05 10:54 358 10 gusting 13 10.6
2019-Dec-05 10:49 002 7 gusting 12 10.0
2019-Dec-05 10:44 349 10 gusting 13 10.6
2019-Dec-05 10:39 354 12 gusting 14 10.6
2019-Dec-05 10:34 021 7 gusting 11 10.6
2019-Dec-05 10:29 348 6 gusting 7 10.6
2019-Dec-05 10:24 331 6 gusting 8 10.6
2019-Dec-05 10:19 349 6 gusting 7 10.6
2019-Dec-05 10:14 341 4 gusting 8 10.6
2019-Dec-05 10:09 358 6 gusting 10 10.6
2019-Dec-05 09:59 314 5 gusting 10 10.0
2019-Dec-05 09:54 322 6 gusting 10 10.6
2019-Dec-05 09:49 339 5 gusting 7 10.6
2019-Dec-05 09:44 342 6 gusting 10 10.0
2019-Dec-05 09:39 355 4 gusting 10 10.0
2019-Dec-05 09:34 328 1 gusting 5 9.4
2019-Dec-05 09:29 293 5 gusting 10 10.0
2019-Dec-05 09:24 296 5 gusting 10 10.0
2019-Dec-05 09:19 328 4 gusting 7 10.0
2019-Dec-05 09:14 304 0 gusting 8 9.4
2019-Dec-05 09:09 290 8 gusting 12 9.4
2019-Dec-05 08:59 284 10 gusting 13 9.4
2019-Dec-05 08:54 297 6 gusting 7 10.0
2019-Dec-05 08:49 294 5 gusting 6 10.0
2019-Dec-05 08:44 318 6 gusting 10 10.0
2019-Dec-05 08:39 284 7 gusting 10 10.0
2019-Dec-05 08:34 282 4 gusting 8 10.0
2019-Dec-05 08:29 301 4 gusting 6 9.4
2019-Dec-05 08:24 302 4 gusting 7 9.4
2019-Dec-05 08:19 276 9 gusting 13 9.4
2019-Dec-05 08:14 270 5 gusting 12 9.4
2019-Dec-05 08:09 290 7 gusting 11 10.0
2019-Dec-05 07:59 278 7 gusting 10 10.0
2019-Dec-05 07:54 285 7 gusting 10 10.0
2019-Dec-05 07:49 279 6 gusting 8 9.4
2019-Dec-05 07:44 279 7 gusting 8 9.4
2019-Dec-05 07:39 256 3 gusting 7 9.4
2019-Dec-05 07:34 278 3 gusting 7 9.4
2019-Dec-05 07:29 224 5 gusting 6 9.4
2019-Dec-05 07:24 257 2 gusting 6 9.4
2019-Dec-05 07:19 266 3 gusting 6 9.4
2019-Dec-05 07:14 259 2 gusting 5 9.4
2019-Dec-05 07:09 262 3 gusting 6 8.9
2019-Dec-05 06:59 265 4 gusting 6 8.9
2019-Dec-05 06:54 282 5 gusting 6 8.9
2019-Dec-05 06:49 265 3 gusting 6 8.9
2019-Dec-05 06:44 267 4 gusting 5 8.9
2019-Dec-05 06:39 264 2 gusting 5 8.9
2019-Dec-05 06:34 259 3 gusting 5 8.9
2019-Dec-05 06:29 262 2 gusting 4 8.3
2019-Dec-05 06:24 258 2 gusting 4 8.3
2019-Dec-05 06:19 262 2 gusting 4 8.3
2019-Dec-05 06:14 246 2 gusting 4 8.3
2019-Dec-05 06:09 260 2 gusting 2 8.3
2019-Dec-05 05:59 262 1 gusting 2 8.3
2019-Dec-05 05:54 285 2 gusting 2 7.8
2019-Dec-05 05:49 272 2 gusting 2 7.8
2019-Dec-05 05:44 281 2 gusting 2 7.8
2019-Dec-05 05:39 287 1 gusting 2 7.8
2019-Dec-05 05:34 013 7.8
2019-Dec-05 05:29 040 7.8
2019-Dec-05 05:24 041 7.8
2019-Dec-05 05:19 040 7.8
2019-Dec-05 05:14 040 7.8
2019-Dec-05 05:09 041 7.8
2019-Dec-05 04:59 041 1 gusting 1 7.8
2019-Dec-05 04:54 041 8.3
2019-Dec-05 04:49 037 0 gusting 1 8.3
2019-Dec-05 04:44 323 0 gusting 2 8.3
2019-Dec-05 04:39 328 1 gusting 2 8.3
2019-Dec-05 04:34 307 1 gusting 2 8.3
2019-Dec-05 04:29 349 8.3
2019-Dec-05 04:24 264 0 gusting 4 8.3
2019-Dec-05 04:19 269 1 gusting 4 8.3
2019-Dec-05 04:14 280 2 gusting 4 8.3
2019-Dec-05 04:09 278 2 gusting 6 8.3
2019-Dec-05 03:59 260 2 gusting 2 8.3
2019-Dec-05 03:54 268 2 gusting 2 8.3
2019-Dec-05 03:49 253 2 gusting 2 8.3
2019-Dec-05 03:44 241 1 gusting 1 8.3
2019-Dec-05 03:39 232 1 gusting 1 8.3
2019-Dec-05 03:34 236 0 gusting 1 8.3
2019-Dec-05 03:29 225 1 gusting 1 8.3
2019-Dec-05 03:24 217 1 gusting 1 8.3
2019-Dec-05 03:19 209 8.9
2019-Dec-05 03:14 218 8.9
2019-Dec-05 03:09 255 8.9
2019-Dec-05 02:59 316 2 gusting 5 8.9
2019-Dec-05 02:54 321 4 gusting 5 8.9
2019-Dec-05 02:49 326 4 gusting 5 8.9
2019-Dec-05 02:44 336 4 gusting 4 8.9
2019-Dec-05 02:39 317 3 gusting 5 8.9
2019-Dec-05 02:34 297 2 gusting 2 8.9
2019-Dec-05 02:29 318 3 gusting 5 8.9
2019-Dec-05 02:24 303 2 gusting 4 8.3
2019-Dec-05 02:19 330 8.3
2019-Dec-05 02:14 243 0 gusting 2 8.3
2019-Dec-05 02:09 265 1 gusting 6 7.8
2019-Dec-05 01:59 239 0 gusting 4 7.8
2019-Dec-05 01:54 235 1 gusting 2 8.3
2019-Dec-05 01:49 261 2 gusting 5 8.3
2019-Dec-05 01:44 237 1 gusting 6 8.3
2019-Dec-05 01:39 267 8.9
2019-Dec-05 01:34 338 1 gusting 5 8.9
2019-Dec-05 01:29 334 4 gusting 6 8.3
2019-Dec-05 01:24 309 2 gusting 4 8.3
2019-Dec-05 01:19 257 2 gusting 6 8.3
2019-Dec-05 01:14 268 2 gusting 6 8.3
2019-Dec-05 01:09 265 3 gusting 6 8.3
2019-Dec-05 00:59 268 4 gusting 8 8.3
2019-Dec-05 00:54 230 4 gusting 5 8.3
2019-Dec-05 00:49 238 4 gusting 5 8.3
2019-Dec-05 00:44 233 4 gusting 6 8.3
2019-Dec-05 00:39 254 4 gusting 5 8.3
2019-Dec-05 00:34 246 1 gusting 4 8.3
2019-Dec-05 00:29 193 0 gusting 2 8.3
2019-Dec-05 00:24 296 8.3
2019-Dec-05 00:19 301 1 gusting 2 8.3
2019-Dec-05 00:14 301 2 gusting 2 8.3
2019-Dec-05 00:09 280 0 gusting 4 8.3
2019-Dec-04 23:59 281 4 gusting 6 8.3
2019-Dec-04 23:54 280 5 gusting 6 8.3
2019-Dec-04 23:49 275 4 gusting 6 8.3
2019-Dec-04 23:44 272 3 gusting 5 8.3
2019-Dec-04 23:39 277 5 gusting 6 8.3
2019-Dec-04 23:34 289 4 gusting 4 8.3
2019-Dec-04 23:29 291 4 gusting 5 8.3
2019-Dec-04 23:24 291 3 gusting 4 8.3
2019-Dec-04 23:19 287 4 gusting 7 8.3
2019-Dec-04 23:14 293 4 gusting 6 8.3
2019-Dec-04 23:09 290 5 gusting 7 8.3
2019-Dec-04 22:59 284 4 gusting 5 8.3
2019-Dec-04 22:54 281 5 gusting 6 8.3
2019-Dec-04 22:49 285 5 gusting 6 8.3
2019-Dec-04 22:44 281 6 gusting 6 8.3
2019-Dec-04 22:39 281 5 gusting 6 8.3
2019-Dec-04 22:34 276 5 gusting 7 8.3
2019-Dec-04 22:29 276 6 gusting 8 8.3
2019-Dec-04 22:24 274 6 gusting 7 8.3
2019-Dec-04 22:19 287 6 gusting 7 8.3
2019-Dec-04 22:14 285 6 gusting 8 8.3
2019-Dec-04 22:09 271 3 gusting 8 8.3
2019-Dec-04 21:59 277 6 gusting 8 8.3
2019-Dec-04 21:54 262 5 gusting 6 8.3
2019-Dec-04 21:49 268 6 gusting 10 8.3
2019-Dec-04 21:44 259 5 gusting 7 8.3
2019-Dec-04 21:39 270 6 gusting 10 8.3
2019-Dec-04 21:34 263 5 gusting 7 8.3
2019-Dec-04 21:29 263 5 gusting 7 8.3
2019-Dec-04 21:24 261 5 gusting 8 8.3
2019-Dec-04 21:19 258 4 gusting 7 8.3
2019-Dec-04 21:14 247 4 gusting 6 8.3
2019-Dec-04 21:09 227 4 gusting 6 8.3
2019-Dec-04 20:59 249 1 gusting 2 8.3
2019-Dec-04 20:54 277 1 gusting 2 8.3
2019-Dec-04 20:49 271 2 gusting 2 8.3
2019-Dec-04 20:44 272 2 gusting 6 8.3
2019-Dec-04 20:39 273 1 gusting 4 8.3
2019-Dec-04 20:34 263 4 gusting 6 8.3
2019-Dec-04 20:29 257 4 gusting 5 8.3
2019-Dec-04 20:24 259 4 gusting 7 8.3
2019-Dec-04 20:19 266 4 gusting 6 8.3
2019-Dec-04 20:14 250 2 gusting 6 8.3
2019-Dec-04 20:09 242 2 gusting 8 8.3
2019-Dec-04 19:59 285 6 gusting 8 8.3
2019-Dec-04 19:54 284 6 gusting 8 8.3
2019-Dec-04 19:49 290 4 gusting 8 8.3
2019-Dec-04 19:44 303 5 gusting 7 8.3
2019-Dec-04 19:39 267 6 gusting 10 8.3
2019-Dec-04 19:34 278 8 gusting 12 8.3
2019-Dec-04 19:29 285 8 gusting 13 8.3
2019-Dec-04 19:24 291 6 gusting 10 8.3
2019-Dec-04 19:19 289 5 gusting 8 8.9
2019-Dec-04 19:14 318 5 gusting 7 8.9
2019-Dec-04 19:09 317 6 gusting 8 8.9
2019-Dec-04 18:59 299 5 gusting 7 8.3
2019-Dec-04 18:54 287 6 gusting 7 8.3
2019-Dec-04 18:49 304 6 gusting 10 8.3
2019-Dec-04 18:44 298 5 gusting 6 8.9
2019-Dec-04 18:39 316 4 gusting 7 8.9
2019-Dec-04 18:34 309 4 gusting 6 8.9
2019-Dec-04 18:29 307 4 gusting 7 8.9
2019-Dec-04 18:24 329 4 gusting 7 8.9
2019-Dec-04 18:19 291 4 gusting 10 8.9
2019-Dec-04 18:14 298 7 gusting 14 8.9
2019-Dec-04 18:09 313 6 gusting 13 8.9
2019-Dec-04 17:59 280 5 gusting 11 8.9
2019-Dec-04 17:54 296 5 gusting 13 8.9
2019-Dec-04 17:49 313 7 gusting 10 8.9
2019-Dec-04 17:44 304 8 gusting 14 8.9
2019-Dec-04 17:39 309 9 gusting 14 8.9
2019-Dec-04 17:34 316 10 gusting 15 8.9
2019-Dec-04 17:29 294 10 gusting 13 8.9
2019-Dec-04 17:24 310 7 gusting 13 8.9
2019-Dec-04 17:19 317 8 gusting 13 8.9
2019-Dec-04 17:14 313 7 gusting 10 8.9
2019-Dec-04 17:09 320 7 gusting 10 8.3
2019-Dec-04 16:59 298 6 gusting 10 8.3
2019-Dec-04 16:54 303 7 gusting 10 7.8
2019-Dec-04 16:49 294 8 gusting 12 7.8
2019-Dec-04 16:44 294 8 gusting 10 7.8
2019-Dec-04 16:39 296 8 gusting 13 7.8
2019-Dec-04 16:34 293 8 gusting 12 7.8
2019-Dec-04 16:29 285 8 gusting 13 7.8
2019-Dec-04 16:24 286 7 gusting 12 7.8
2019-Dec-04 16:19 293 7 gusting 11 7.8
2019-Dec-04 16:14 294 8 gusting 12 7.8
2019-Dec-04 16:09 300 7 gusting 13 7.8
2019-Dec-04 15:59 296 7 gusting 10 7.8
2019-Dec-04 15:54 300 8 gusting 10 7.8
2019-Dec-04 15:49 297 7 gusting 11 7.8
2019-Dec-04 15:44 301 8 gusting 12 7.8
2019-Dec-04 15:39 298 10 gusting 11 7.8
2019-Dec-04 15:34 291 8 gusting 10 7.8
2019-Dec-04 15:29 297 7 gusting 10 7.8
2019-Dec-04 15:24 294 6 gusting 8 7.8
2019-Dec-04 15:19 298 6 gusting 8 7.8
2019-Dec-04 15:14 298 6 gusting 10 7.8
2019-Dec-04 15:09 299 6 gusting 13 7.8
2019-Dec-04 14:59 308 10 gusting 14 8.3
2019-Dec-04 14:54 309 11 gusting 14 8.3
2019-Dec-04 14:49 316 11 gusting 13 8.3
2019-Dec-04 14:44 310 8 gusting 12 8.3
2019-Dec-04 14:39 326 8 gusting 12 8.3
2019-Dec-04 14:34 323 9 gusting 14 8.3
2019-Dec-04 14:29 320 8 gusting 11 8.3
2019-Dec-04 14:24 308 7 gusting 13 8.3
2019-Dec-04 14:19 299 7 gusting 11 8.3
2019-Dec-04 14:14 298 9 gusting 14 8.3
2019-Dec-04 14:09 312 9 gusting 13 8.9
2019-Dec-04 13:59 309 8 gusting 13 8.3
2019-Dec-04 13:54 312 11 gusting 17 8.3
2019-Dec-04 13:49 312 11 gusting 14 8.9
2019-Dec-04 13:44 308 8 gusting 13 8.9
2019-Dec-04 13:39 312 8 gusting 12 8.9
2019-Dec-04 13:34 318 10 gusting 15 8.9
2019-Dec-04 13:29 321 12 gusting 17 8.9
2019-Dec-04 13:24 319 11 gusting 17 8.9
2019-Dec-04 13:19 340 13 gusting 18 8.9
2019-Dec-04 13:14 339 12 gusting 18 8.9
2019-Dec-04 13:09 345 8 gusting 15 8.9
2019-Dec-04 12:59 328 12 gusting 15 9.4
2019-Dec-04 12:54 344 12 gusting 15 8.9
2019-Dec-04 12:49 340 12 gusting 18 8.9
2019-Dec-04 12:44 332 12 gusting 17 8.9
2019-Dec-04 12:39 330 12 gusting 18 9.4
2019-Dec-04 12:34 331 11 gusting 14 9.4
2019-Dec-04 12:29 325 10 gusting 13 9.4
2019-Dec-04 12:24 348 11 gusting 13 9.4
2019-Dec-04 12:19 001 11 gusting 15 9.4
2019-Dec-04 12:14 337 8 gusting 14 8.9
2019-Dec-04 12:09 341 10 gusting 14 8.9
2019-Dec-04 11:59 329 8 gusting 11 8.9
2019-Dec-04 11:54 319 7 gusting 11 8.9
2019-Dec-04 11:50 326 10 gusting 13 8.9
2019-Dec-04 11:44 336 10 gusting 14 8.9
2019-Dec-04 11:39 337 11 gusting 14 8.9
2019-Dec-04 11:34 346 13 gusting 19 9.4
2019-Dec-04 11:29 333 11 gusting 19 9.4
2019-Dec-04 11:24 340 10 gusting 15 9.4
2019-Dec-04 11:20 350 13 gusting 17 9.4
2019-Dec-04 11:14 341 13 gusting 19 9.4
2019-Dec-04 11:10 351 11 gusting 15 9.4
2019-Dec-04 10:59 001 9 gusting 13 9.4
2019-Dec-04 10:54 341 9 gusting 14 9.4
2019-Dec-04 10:49 346 11 gusting 14 9.4
2019-Dec-04 10:44 342 8 gusting 12 9.4
2019-Dec-04 10:39 355 7 gusting 10 9.4
2019-Dec-04 10:34 339 8 gusting 11 9.4
2019-Dec-04 10:29 347 6 gusting 10 9.4
2019-Dec-04 10:24 349 6 gusting 10 9.4
2019-Dec-04 10:19 329 6 gusting 10 9.4
2019-Dec-04 10:14 341 9 gusting 13 9.4
2019-Dec-04 10:09 342 7 gusting 12 9.4
2019-Dec-04 09:59 008 8 gusting 11 9.4
2019-Dec-04 09:54 345 8 gusting 13 9.4
2019-Dec-04 09:49 350 9 gusting 14 9.4
2019-Dec-04 09:44 355 11 gusting 14 8.9
2019-Dec-04 09:39 013 13 gusting 17 8.9
2019-Dec-04 09:34 015 12 gusting 18 8.9
2019-Dec-04 09:29 017 13 gusting 17 8.9
2019-Dec-04 09:24 001 12 gusting 15 8.9
2019-Dec-04 09:19 024 10 gusting 13 8.9
2019-Dec-04 09:14 016 8 gusting 13 8.9
2019-Dec-04 09:09 024 7 gusting 14 8.9
2019-Dec-04 08:59 042 13 gusting 17 8.9
2019-Dec-04 08:54 019 11 gusting 14 8.9
2019-Dec-04 08:49 023 12 gusting 17 8.9
2019-Dec-04 08:44 023 11 gusting 17 8.9
2019-Dec-04 08:39 017 11 gusting 19 8.9
2019-Dec-04 08:34 030 11 gusting 15 8.3
2019-Dec-04 08:29 013 12 gusting 17 8.3
2019-Dec-04 08:24 006 14 gusting 18 8.3
2019-Dec-04 08:19 028 13 gusting 19 8.3
2019-Dec-04 08:14 010 16 gusting 19 8.3
2019-Dec-04 08:09 005 13 gusting 19 8.3
2019-Dec-04 07:59 010 13 gusting 19 8.3
2019-Dec-04 07:54 015 14 gusting 19 8.3
2019-Dec-04 07:49 008 10 gusting 15 8.3
2019-Dec-04 07:44 002 12 gusting 17 8.3
2019-Dec-04 07:39 016 13 gusting 17 8.3
2019-Dec-04 07:34 010 11 gusting 17 8.3
2019-Dec-04 07:29 358 13 gusting 17 8.3
2019-Dec-04 07:24 011 12 gusting 17 8.3
2019-Dec-04 07:19 019 8 gusting 14 8.3
2019-Dec-04 07:14 348 12 gusting 19 8.3
2019-Dec-04 07:09 343 10 gusting 17 8.9
2019-Dec-04 06:59 006 10 gusting 14 8.9
2019-Dec-04 06:54 021 13 gusting 17 9.4
2019-Dec-04 06:49 024 13 gusting 18 9.4
2019-Dec-04 06:44 036 12 gusting 17 9.4
2019-Dec-04 06:39 018 12 gusting 20 9.4
2019-Dec-04 06:34 023 18 gusting 22 9.4
2019-Dec-04 06:29 024 17 gusting 24 9.4
2019-Dec-04 06:24 023 14 gusting 24 10.0
2019-Dec-04 06:19 022 15 gusting 20 10.0
2019-Dec-04 06:14 036 14 gusting 19 10.0
2019-Dec-04 06:09 023 15 gusting 22 10.0
2019-Dec-04 05:59 013 14 gusting 19 10.0
2019-Dec-04 05:54 019 17 gusting 22 10.6
2019-Dec-04 05:49 022 15 gusting 20 10.6
2019-Dec-04 05:44 008 15 gusting 22 10.6
2019-Dec-04 05:39 014 15 gusting 19 10.0
2019-Dec-04 05:34 024 17 gusting 22 10.0
2019-Dec-04 05:29 037 15 gusting 22 10.0
2019-Dec-04 05:24 023 15 gusting 25 10.6
2019-Dec-04 05:19 015 15 gusting 26 10.6
2019-Dec-04 05:14 020 19 gusting 26 10.6
2019-Dec-04 05:09 018 17 gusting 26 10.6
2019-Dec-04 04:59 015 19 gusting 24 11.1
2019-Dec-04 04:54 022 19 gusting 24 11.1
2019-Dec-04 04:49 001 19 gusting 25 11.1
2019-Dec-04 04:44 358 19 gusting 30 11.1
2019-Dec-04 04:39 021 17 gusting 27 11.1
2019-Dec-04 04:34 008 16 gusting 22 11.1
2019-Dec-04 04:29 010 17 gusting 22 11.1
2019-Dec-04 04:24 037 15 gusting 20 11.1
2019-Dec-04 04:19 033 13 gusting 20 11.1
2019-Dec-04 04:14 037 15 gusting 22 11.1
2019-Dec-04 04:09 024 14 gusting 24 11.1
2019-Dec-04 03:59 029 16 gusting 24 11.7
2019-Dec-04 03:54 040 15 gusting 27 11.7
2019-Dec-04 03:49 023 13 gusting 18 11.7
2019-Dec-04 03:44 028 15 gusting 19 11.7
2019-Dec-04 03:39 037 13 gusting 17 11.7
2019-Dec-04 03:34 014 11 gusting 15 11.7
2019-Dec-04 03:29 038 6 gusting 12 11.7
2019-Dec-04 03:24 026 8 gusting 12 11.7
2019-Dec-04 03:19 042 10 gusting 17 11.7
2019-Dec-04 03:14 046 11 gusting 17 11.7
2019-Dec-04 03:09 055 11 gusting 15 11.7
2019-Dec-04 02:59 048 11 gusting 19 11.7
2019-Dec-04 02:54 041 12 gusting 15 11.7
2019-Dec-04 02:49 042 12 gusting 15 11.7
2019-Dec-04 02:44 044 13 gusting 15 11.7
2019-Dec-04 02:39 035 13 gusting 17 11.7
2019-Dec-04 02:34 035 11 gusting 14 12.2
2019-Dec-04 02:29 046 11 gusting 17 12.2
2019-Dec-04 02:24 041 11 gusting 18 12.2
2019-Dec-04 02:19 036 14 gusting 19 12.2
2019-Dec-04 02:14 007 10 gusting 14 12.2
2019-Dec-04 02:09 018 8 gusting 12 12.2
2019-Dec-04 01:59 333 3 gusting 6 11.7
2019-Dec-04 01:54 331 3 gusting 5 11.1
2019-Dec-04 01:49 327 0 gusting 5 10.6
2019-Dec-04 01:44 168 10.6
2019-Dec-04 01:39 141 10.0
2019-Dec-04 01:34 141 10.0
2019-Dec-04 01:29 141 10.0
2019-Dec-04 01:24 141 10.0
2019-Dec-04 01:19 141 10.0
2019-Dec-04 01:14 141 10.0
2019-Dec-04 01:09 141 10.0
2019-Dec-04 00:59 141 10.0
2019-Dec-04 00:54 141 10.0
2019-Dec-04 00:49 141 10.0
2019-Dec-04 00:44 141 10.0
2019-Dec-04 00:39 141 10.0
2019-Dec-04 00:34 134 10.0
2019-Dec-04 00:29 135 10.0
2019-Dec-04 00:24 133 10.0
2019-Dec-04 00:19 130 10.0
2019-Dec-04 00:14 147 10.0
2019-Dec-04 00:09 147 9.4
2019-Dec-03 23:59 147 9.4
2019-Dec-03 23:54 147 9.4
2019-Dec-03 23:49 147 9.4
2019-Dec-03 23:44 147 9.4
2019-Dec-03 23:39 147 9.4
2019-Dec-03 23:34 147 9.4
2019-Dec-03 23:29 147 9.4
2019-Dec-03 23:24 147 9.4
2019-Dec-03 23:19 147 9.4
2019-Dec-03 23:14 144 9.4
2019-Dec-03 23:09 125 10.0
2019-Dec-03 22:59 144 1 gusting 2 10.0
2019-Dec-03 22:54 167 10.0
2019-Dec-03 22:49 206 1 gusting 2 10.6
2019-Dec-03 22:44 158 10.6
2019-Dec-03 22:39 144 10.6
2019-Dec-03 22:34 143 10.6
2019-Dec-03 22:29 119 10.6
2019-Dec-03 22:24 119 10.6
2019-Dec-03 22:19 119 10.6
2019-Dec-03 22:14 119 10.6
2019-Dec-03 22:09 119 10.6